sensor_id;sensor_type;location;lat;lon;timestamp;temperature;humidity
8780;DHT22;62328;51.19929245;4.42130175;2023-04-15T00:00:45;11.60;99.90
8780;DHT22;62328;51.19929245;4.42130175;2023-04-15T00:03:11;11.60;99.90
8780;DHT22;62328;51.19929245;4.42130175;2023-04-15T00:05:38;11.60;99.90
8780;DHT22;62328;51.19929245;4.42130175;2023-04-15T00:08:06;11.60;99.90
8780;DHT22;62328;51.19929245;4.42130175;2023-04-15T00:10:38;11.60;99.90
8780;DHT22;62328;51.19929245;4.42130175;2023-04-15T00:13:08;11.60;99.90
8780;DHT22;62328;51.19929245;4.42130175;2023-04-15T00:15:38;11.60;99.90
8780;DHT22;62328;51.19929245;4.42130175;2023-04-15T00:18:06;11.50;99.90
8780;DHT22;62328;51.19929245;4.42130175;2023-04-15T00:20:34;11.50;99.90
8780;DHT22;62328;51.19929245;4.42130175;2023-04-15T00:23:02;11.50;99.90
8780;DHT22;62328;51.19929245;4.42130175;2023-04-15T00:25:32;11.50;99.90
8780;DHT22;62328;51.19929245;4.42130175;2023-04-15T00:28:03;11.50;99.90
8780;DHT22;62328;51.19929245;4.42130175;2023-04-15T00:30:30;12.30;99.90
8780;DHT22;62328;51.19929245;4.42130175;2023-04-15T00:32:57;11.50;99.90
8780;DHT22;62328;51.19929245;4.42130175;2023-04-15T00:35:24;11.70;99.90
8780;DHT22;62328;51.19929245;4.42130175;2023-04-15T00:37:51;11.60;99.90
8780;DHT22;62328;51.19929245;4.42130175;2023-04-15T00:40:19;11.60;99.90
8780;DHT22;62328;51.19929245;4.42130175;2023-04-15T00:42:46;11.60;99.90
8780;DHT22;62328;51.19929245;4.42130175;2023-04-15T00:45:16;11.70;99.90
8780;DHT22;62328;51.19929245;4.42130175;2023-04-15T00:47:43;11.70;99.90
8780;DHT22;62328;51.19929245;4.42130175;2023-04-15T00:50:12;11.70;99.90
8780;DHT22;62328;51.19929245;4.42130175;2023-04-15T00:52:39;11.70;99.90
8780;DHT22;62328;51.19929245;4.42130175;2023-04-15T00:55:08;11.70;99.90
8780;DHT22;62328;51.19929245;4.42130175;2023-04-15T00:57:36;11.70;99.90
8780;DHT22;62328;51.19929245;4.42130175;2023-04-15T01:00:05;11.80;99.90
8780;DHT22;62328;51.19929245;4.42130175;2023-04-15T01:02:36;11.70;99.90
8780;DHT22;62328;51.19929245;4.42130175;2023-04-15T01:05:05;11.70;99.90
8780;DHT22;62328;51.19929245;4.42130175;2023-04-15T01:07:32;11.70;99.90
8780;DHT22;62328;51.19929245;4.42130175;2023-04-15T01:09:59;11.70;99.90
8780;DHT22;62328;51.19929245;4.42130175;2023-04-15T01:12:27;11.70;99.90
8780;DHT22;62328;51.19929245;4.42130175;2023-04-15T01:14:55;11.60;99.90
8780;DHT22;62328;51.19929245;4.42130175;2023-04-15T01:17:23;11.60;99.90
8780;DHT22;62328;51.19929245;4.42130175;2023-04-15T01:19:55;11.60;99.90
8780;DHT22;62328;51.19929245;4.42130175;2023-04-15T01:22:23;11.50;99.90
8780;DHT22;62328;51.19929245;4.42130175;2023-04-15T01:24:56;11.50;99.90
8780;DHT22;62328;51.19929245;4.42130175;2023-04-15T01:27:27;12.20;99.90
8780;DHT22;62328;51.19929245;4.42130175;2023-04-15T01:29:55;11.50;99.90
8780;DHT22;62328;51.19929245;4.42130175;2023-04-15T01:32:23;11.60;99.90
8780;DHT22;62328;51.19929245;4.42130175;2023-04-15T01:34:51;11.50;99.90
8780;DHT22;62328;51.19929245;4.42130175;2023-04-15T01:37:21;11.50;99.90
8780;DHT22;62328;51.19929245;4.42130175;2023-04-15T01:39:48;11.50;99.90
8780;DHT22;62328;51.19929245;4.42130175;2023-04-15T01:42:14;11.50;99.90
8780;DHT22;62328;51.19929245;4.42130175;2023-04-15T01:44:43;11.50;99.90
8780;DHT22;62328;51.19929245;4.42130175;2023-04-15T01:47:10;11.50;99.90
8780;DHT22;62328;51.19929245;4.42130175;2023-04-15T01:49:39;11.50;99.90
8780;DHT22;62328;51.19929245;4.42130175;2023-04-15T01:52:07;11.50;99.90
8780;DHT22;62328;51.19929245;4.42130175;2023-04-15T01:54:33;11.50;99.90
8780;DHT22;62328;51.19929245;4.42130175;2023-04-15T01:57:00;11.50;99.90
8780;DHT22;62328;51.19929245;4.42130175;2023-04-15T01:59:30;11.50;99.90
8780;DHT22;62328;51.19929245;4.42130175;2023-04-15T02:01:58;11.40;99.90
8780;DHT22;62328;51.19929245;4.42130175;2023-04-15T02:04:25;11.40;99.90
8780;DHT22;62328;51.19929245;4.42130175;2023-04-15T02:06:55;11.40;99.90
8780;DHT22;62328;51.19929245;4.42130175;2023-04-15T02:09:22;11.40;99.90
8780;DHT22;62328;51.19929245;4.42130175;2023-04-15T02:11:50;11.40;99.90
8780;DHT22;62328;51.19929245;4.42130175;2023-04-15T02:14:18;11.40;99.90
8780;DHT22;62328;51.19929245;4.42130175;2023-04-15T02:16:45;11.30;99.90
8780;DHT22;62328;51.19929245;4.42130175;2023-04-15T02:19:14;11.40;99.90
8780;DHT22;62328;51.19929245;4.42130175;2023-04-15T02:21:40;11.30;99.90
8780;DHT22;62328;51.19929245;4.42130175;2023-04-15T02:24:08;11.30;99.90
8780;DHT22;62328;51.19929245;4.42130175;2023-04-15T02:26:36;11.50;99.90
8780;DHT22;62328;51.19929245;4.42130175;2023-04-15T02:29:04;11.30;99.90
8780;DHT22;62328;51.19929245;4.42130175;2023-04-15T02:31:32;11.30;99.90
8780;DHT22;62328;51.19929245;4.42130175;2023-04-15T02:34:02;11.30;99.90
8780;DHT22;62328;51.19929245;4.42130175;2023-04-15T02:36:31;11.30;99.90
8780;DHT22;62328;51.19929245;4.42130175;2023-04-15T02:38:59;11.30;99.90
8780;DHT22;62328;51.19929245;4.42130175;2023-04-15T02:41:26;11.20;99.90
8780;DHT22;62328;51.19929245;4.42130175;2023-04-15T02:43:53;11.50;99.90
8780;DHT22;62328;51.19929245;4.42130175;2023-04-15T02:46:22;12.50;99.90
8780;DHT22;62328;51.19929245;4.42130175;2023-04-15T02:48:49;11.30;99.90
8780;DHT22;62328;51.19929245;4.42130175;2023-04-15T02:51:19;11.30;99.90
8780;DHT22;62328;51.19929245;4.42130175;2023-04-15T02:53:48;11.20;99.90
8780;DHT22;62328;51.19929245;4.42130175;2023-04-15T02:56:15;11.20;99.90
8780;DHT22;62328;51.19929245;4.42130175;2023-04-15T02:58:44;11.20;99.90
8780;DHT22;62328;51.19929245;4.42130175;2023-04-15T03:01:11;11.10;99.90
8780;DHT22;62328;51.19929245;4.42130175;2023-04-15T03:03:38;11.60;99.90
8780;DHT22;62328;51.19929245;4.42130175;2023-04-15T03:06:05;11.10;99.90
8780;DHT22;62328;51.19929245;4.42130175;2023-04-15T03:08:33;11.10;99.90
8780;DHT22;62328;51.19929245;4.42130175;2023-04-15T03:11:04;11.00;99.90
8780;DHT22;62328;51.19929245;4.42130175;2023-04-15T03:13:32;11.00;99.90
8780;DHT22;62328;51.19929245;4.42130175;2023-04-15T03:15:59;11.00;99.90
8780;DHT22;62328;51.19929245;4.42130175;2023-04-15T03:18:26;11.10;99.90
8780;DHT22;62328;51.19929245;4.42130175;2023-04-15T03:20:53;10.90;99.90
8780;DHT22;62328;51.19929245;4.42130175;2023-04-15T03:23:20;10.90;99.90
8780;DHT22;62328;51.19929245;4.42130175;2023-04-15T03:25:47;11.00;99.90
8780;DHT22;62328;51.19929245;4.42130175;2023-04-15T03:28:17;11.00;99.90
8780;DHT22;62328;51.19929245;4.42130175;2023-04-15T03:30:44;10.90;99.90
8780;DHT22;62328;51.19929245;4.42130175;2023-04-15T03:33:12;10.90;99.90
8780;DHT22;62328;51.19929245;4.42130175;2023-04-15T03:35:39;10.90;99.90
8780;DHT22;62328;51.19929245;4.42130175;2023-04-15T03:38:05;10.90;99.90
8780;DHT22;62328;51.19929245;4.42130175;2023-04-15T03:40:32;10.90;99.90
8780;DHT22;62328;51.19929245;4.42130175;2023-04-15T03:42:59;10.90;99.90
8780;DHT22;62328;51.19929245;4.42130175;2023-04-15T03:45:27;11.00;99.90
8780;DHT22;62328;51.19929245;4.42130175;2023-04-15T03:47:54;10.80;99.90
8780;DHT22;62328;51.19929245;4.42130175;2023-04-15T03:50:22;10.90;99.90
8780;DHT22;62328;51.19929245;4.42130175;2023-04-15T03:52:49;10.90;99.90
8780;DHT22;62328;51.19929245;4.42130175;2023-04-15T03:55:16;10.80;99.90
8780;DHT22;62328;51.19929245;4.42130175;2023-04-15T03:57:42;10.80;99.90
8780;DHT22;62328;51.19929245;4.42130175;2023-04-15T04:00:10;11.80;99.90
8780;DHT22;62328;51.19929245;4.42130175;2023-04-15T04:02:38;10.80;99.90
8780;DHT22;62328;51.19929245;4.42130175;2023-04-15T04:05:06;10.80;99.90
8780;DHT22;62328;51.19929245;4.42130175;2023-04-15T04:07:34;10.80;99.90
8780;DHT22;62328;51.19929245;4.42130175;2023-04-15T04:10:01;10.90;99.90
8780;DHT22;62328;51.19929245;4.42130175;2023-04-15T04:12:29;10.90;99.90
8780;DHT22;62328;51.19929245;4.42130175;2023-04-15T04:14:56;10.90;99.90
8780;DHT22;62328;51.19929245;4.42130175;2023-04-15T04:17:23;11.40;99.90
8780;DHT22;62328;51.19929245;4.42130175;2023-04-15T04:19:52;10.90;99.90
8780;DHT22;62328;51.19929245;4.42130175;2023-04-15T04:22:21;10.80;99.90
8780;DHT22;62328;51.19929245;4.42130175;2023-04-15T04:24:48;10.80;99.90
8780;DHT22;62328;51.19929245;4.42130175;2023-04-15T04:27:16;10.80;99.90
8780;DHT22;62328;51.19929245;4.42130175;2023-04-15T04:29:42;10.80;99.90
8780;DHT22;62328;51.19929245;4.42130175;2023-04-15T04:32:13;10.80;99.90
8780;DHT22;62328;51.19929245;4.42130175;2023-04-15T04:34:40;10.80;99.90
8780;DHT22;62328;51.19929245;4.42130175;2023-04-15T04:37:08;11.00;99.90
8780;DHT22;62328;51.19929245;4.42130175;2023-04-15T04:39:35;10.80;99.90
8780;DHT22;62328;51.19929245;4.42130175;2023-04-15T04:42:02;10.80;99.90
8780;DHT22;62328;51.19929245;4.42130175;2023-04-15T04:44:29;10.80;99.90
8780;DHT22;62328;51.19929245;4.42130175;2023-04-15T04:46:56;10.80;99.90
8780;DHT22;62328;51.19929245;4.42130175;2023-04-15T04:49:23;10.80;99.90
8780;DHT22;62328;51.19929245;4.42130175;2023-04-15T04:51:52;10.80;99.90
8780;DHT22;62328;51.19929245;4.42130175;2023-04-15T04:54:20;10.80;99.90
8780;DHT22;62328;51.19929245;4.42130175;2023-04-15T04:56:48;10.80;99.90
8780;DHT22;62328;51.19929245;4.42130175;2023-04-15T04:59:15;10.80;99.90
8780;DHT22;62328;51.19929245;4.42130175;2023-04-15T05:01:42;10.80;99.90
8780;DHT22;62328;51.19929245;4.42130175;2023-04-15T05:04:09;10.80;99.90
8780;DHT22;62328;51.19929245;4.42130175;2023-04-15T05:06:36;11.30;99.90
8780;DHT22;62328;51.19929245;4.42130175;2023-04-15T05:09:03;11.20;99.90
8780;DHT22;62328;51.19929245;4.42130175;2023-04-15T05:11:31;10.90;99.90
8780;DHT22;62328;51.19929245;4.42130175;2023-04-15T05:13:59;10.90;99.90
8780;DHT22;62328;51.19929245;4.42130175;2023-04-15T05:16:26;10.90;99.90
8780;DHT22;62328;51.19929245;4.42130175;2023-04-15T05:18:53;10.80;99.90
8780;DHT22;62328;51.19929245;4.42130175;2023-04-15T05:21:21;10.90;99.90
8780;DHT22;62328;51.19929245;4.42130175;2023-04-15T05:23:49;10.90;99.90
8780;DHT22;62328;51.19929245;4.42130175;2023-04-15T05:26:15;10.90;99.90
8780;DHT22;62328;51.19929245;4.42130175;2023-04-15T05:28:44;11.20;99.90
8780;DHT22;62328;51.19929245;4.42130175;2023-04-15T05:31:12;10.90;99.90
8780;DHT22;62328;51.19929245;4.42130175;2023-04-15T05:33:39;11.00;99.90
8780;DHT22;62328;51.19929245;4.42130175;2023-04-15T05:36:06;10.90;99.90
8780;DHT22;62328;51.19929245;4.42130175;2023-04-15T05:38:33;10.90;99.90
8780;DHT22;62328;51.19929245;4.42130175;2023-04-15T05:41:00;11.00;99.90
8780;DHT22;62328;51.19929245;4.42130175;2023-04-15T05:43:27;11.00;99.90
8780;DHT22;62328;51.19929245;4.42130175;2023-04-15T05:45:56;11.00;99.90
8780;DHT22;62328;51.19929245;4.42130175;2023-04-15T05:48:24;11.00;99.90
8780;DHT22;62328;51.19929245;4.42130175;2023-04-15T05:50:51;11.00;99.90
8780;DHT22;62328;51.19929245;4.42130175;2023-04-15T05:53:19;11.00;99.90
8780;DHT22;62328;51.19929245;4.42130175;2023-04-15T05:55:46;11.30;99.90
8780;DHT22;62328;51.19929245;4.42130175;2023-04-15T05:58:13;11.00;99.90
8780;DHT22;62328;51.19929245;4.42130175;2023-04-15T06:00:42;11.10;99.90
8780;DHT22;62328;51.19929245;4.42130175;2023-04-15T06:03:13;11.00;99.90
8780;DHT22;62328;51.19929245;4.42130175;2023-04-15T06:05:41;11.00;99.90
8780;DHT22;62328;51.19929245;4.42130175;2023-04-15T06:08:09;11.00;99.90
8780;DHT22;62328;51.19929245;4.42130175;2023-04-15T06:10:37;11.70;99.90
8780;DHT22;62328;51.19929245;4.42130175;2023-04-15T06:13:04;11.10;99.90
8780;DHT22;62328;51.19929245;4.42130175;2023-04-15T06:15:31;11.10;99.90
8780;DHT22;62328;51.19929245;4.42130175;2023-04-15T06:17:58;11.10;99.90
8780;DHT22;62328;51.19929245;4.42130175;2023-04-15T06:20:26;11.30;99.90
8780;DHT22;62328;51.19929245;4.42130175;2023-04-15T06:22:54;11.80;99.90
8780;DHT22;62328;51.19929245;4.42130175;2023-04-15T06:25:20;11.30;99.90
8780;DHT22;62328;51.19929245;4.42130175;2023-04-15T06:27:47;11.30;99.90
8780;DHT22;62328;51.19929245;4.42130175;2023-04-15T06:30:14;11.40;99.90
8780;DHT22;62328;51.19929245;4.42130175;2023-04-15T06:32:41;11.30;99.90
8780;DHT22;62328;51.19929245;4.42130175;2023-04-15T06:35:08;11.40;99.90
8780;DHT22;62328;51.19929245;4.42130175;2023-04-15T06:37:37;11.40;99.90
8780;DHT22;62328;51.19929245;4.42130175;2023-04-15T06:40:05;11.40;99.90
8780;DHT22;62328;51.19929245;4.42130175;2023-04-15T06:42:33;11.50;99.90
8780;DHT22;62328;51.19929245;4.42130175;2023-04-15T06:45:01;11.50;99.90
8780;DHT22;62328;51.19929245;4.42130175;2023-04-15T06:47:28;11.50;99.90
8780;DHT22;62328;51.19929245;4.42130175;2023-04-15T06:49:55;11.60;99.90
8780;DHT22;62328;51.19929245;4.42130175;2023-04-15T06:52:22;11.70;99.90
8780;DHT22;62328;51.19929245;4.42130175;2023-04-15T06:54:50;11.70;99.90
8780;DHT22;62328;51.19929245;4.42130175;2023-04-15T06:57:17;11.80;99.90
8780;DHT22;62328;51.19929245;4.42130175;2023-04-15T06:59:43;11.80;99.90
8780;DHT22;62328;51.19929245;4.42130175;2023-04-15T07:02:12;11.80;99.90
8780;DHT22;62328;51.19929245;4.42130175;2023-04-15T07:04:39;11.80;99.90
8780;DHT22;62328;51.19929245;4.42130175;2023-04-15T07:07:06;11.80;99.90
8780;DHT22;62328;51.19929245;4.42130175;2023-04-15T07:09:34;11.80;99.90
8780;DHT22;62328;51.19929245;4.42130175;2023-04-15T07:12:02;11.70;99.90
8780;DHT22;62328;51.19929245;4.42130175;2023-04-15T07:14:29;11.70;99.90
8780;DHT22;62328;51.19929245;4.42130175;2023-04-15T07:16:56;11.90;99.90
8780;DHT22;62328;51.19929245;4.42130175;2023-04-15T07:19:23;11.70;99.90
8780;DHT22;62328;51.19929245;4.42130175;2023-04-15T07:21:50;11.70;99.90
8780;DHT22;62328;51.19929245;4.42130175;2023-04-15T07:24:16;11.70;99.90
8780;DHT22;62328;51.19929245;4.42130175;2023-04-15T07:26:45;11.70;99.90
8780;DHT22;62328;51.19929245;4.42130175;2023-04-15T07:29:13;11.80;99.90
8780;DHT22;62328;51.19929245;4.42130175;2023-04-15T07:31:40;12.30;99.90
8780;DHT22;62328;51.19929245;4.42130175;2023-04-15T07:34:08;12.00;99.90
8780;DHT22;62328;51.19929245;4.42130175;2023-04-15T07:36:35;12.30;99.90
8780;DHT22;62328;51.19929245;4.42130175;2023-04-15T07:39:02;12.10;99.90
8780;DHT22;62328;51.19929245;4.42130175;2023-04-15T07:41:29;12.20;99.90
8780;DHT22;62328;51.19929245;4.42130175;2023-04-15T07:43:56;12.20;99.90
8780;DHT22;62328;51.19929245;4.42130175;2023-04-15T07:46:24;12.40;99.90
8780;DHT22;62328;51.19929245;4.42130175;2023-04-15T07:48:52;12.40;99.90
8780;DHT22;62328;51.19929245;4.42130175;2023-04-15T07:51:18;12.50;99.90
8780;DHT22;62328;51.19929245;4.42130175;2023-04-15T07:53:46;12.60;99.90
8780;DHT22;62328;51.19929245;4.42130175;2023-04-15T07:56:13;12.70;99.90
8780;DHT22;62328;51.19929245;4.42130175;2023-04-15T07:58:39;12.80;99.90
8780;DHT22;62328;51.19929245;4.42130175;2023-04-15T08:01:07;12.90;99.90
8780;DHT22;62328;51.19929245;4.42130175;2023-04-15T08:03:35;12.90;99.90
8780;DHT22;62328;51.19929245;4.42130175;2023-04-15T08:06:02;12.90;99.90
8780;DHT22;62328;51.19929245;4.42130175;2023-04-15T08:08:29;13.10;99.90
8780;DHT22;62328;51.19929245;4.42130175;2023-04-15T08:10:56;13.20;99.90
8780;DHT22;62328;51.19929245;4.42130175;2023-04-15T08:13:23;13.30;99.90
8780;DHT22;62328;51.19929245;4.42130175;2023-04-15T08:16:12;13.40;99.90
8780;DHT22;62328;51.19929245;4.42130175;2023-04-15T08:18:41;13.40;99.90
8780;DHT22;62328;51.19929245;4.42130175;2023-04-15T08:21:08;13.50;99.90
8780;DHT22;62328;51.19929245;4.42130175;2023-04-15T08:23:35;13.70;99.90
8780;DHT22;62328;51.19929245;4.42130175;2023-04-15T08:26:02;13.70;99.90
8780;DHT22;62328;51.19929245;4.42130175;2023-04-15T08:28:29;13.70;99.90
8780;DHT22;62328;51.19929245;4.42130175;2023-04-15T08:30:56;13.80;99.90
8780;DHT22;62328;51.19929245;4.42130175;2023-04-15T08:33:23;14.40;99.90
8780;DHT22;62328;51.19929245;4.42130175;2023-04-15T08:35:51;14.00;99.90
8780;DHT22;62328;51.19929245;4.42130175;2023-04-15T08:38:18;14.20;99.90
8780;DHT22;62328;51.19929245;4.42130175;2023-04-15T08:40:45;14.20;99.90
8780;DHT22;62328;51.19929245;4.42130175;2023-04-15T08:43:17;14.20;99.90
8780;DHT22;62328;51.19929245;4.42130175;2023-04-15T08:45:44;14.30;99.90
8780;DHT22;62328;51.19929245;4.42130175;2023-04-15T08:48:14;14.40;99.90
8780;DHT22;62328;51.19929245;4.42130175;2023-04-15T08:50:42;14.40;99.90
8780;DHT22;62328;51.19929245;4.42130175;2023-04-15T08:53:10;14.60;99.90
8780;DHT22;62328;51.19929245;4.42130175;2023-04-15T08:55:42;14.60;99.90
8780;DHT22;62328;51.19929245;4.42130175;2023-04-15T08:58:11;14.60;99.90
8780;DHT22;62328;51.19929245;4.42130175;2023-04-15T09:00:38;14.70;99.90
8780;DHT22;62328;51.19929245;4.42130175;2023-04-15T09:03:07;14.80;99.90
8780;DHT22;62328;51.19929245;4.42130175;2023-04-15T09:05:34;14.80;99.90
8780;DHT22;62328;51.19929245;4.42130175;2023-04-15T09:08:02;14.80;99.90
8780;DHT22;62328;51.19929245;4.42130175;2023-04-15T09:10:32;14.90;99.90
8780;DHT22;62328;51.19929245;4.42130175;2023-04-15T09:13:00;15.00;99.90
8780;DHT22;62328;51.19929245;4.42130175;2023-04-15T09:15:27;15.00;99.90
8780;DHT22;62328;51.19929245;4.42130175;2023-04-15T09:17:55;15.20;99.90
8780;DHT22;62328;51.19929245;4.42130175;2023-04-15T09:20:24;15.20;99.90
8780;DHT22;62328;51.19929245;4.42130175;2023-04-15T09:22:51;15.30;99.90
8780;DHT22;62328;51.19929245;4.42130175;2023-04-15T09:25:25;15.30;99.90
8780;DHT22;62328;51.19929245;4.42130175;2023-04-15T09:27:55;15.40;99.90
8780;DHT22;62328;51.19929245;4.42130175;2023-04-15T09:30:23;15.50;99.90
8780;DHT22;62328;51.19929245;4.42130175;2023-04-15T09:32:52;15.50;99.90
8780;DHT22;62328;51.19929245;4.42130175;2023-04-15T09:35:19;15.50;99.90
8780;DHT22;62328;51.19929245;4.42130175;2023-04-15T09:37:47;15.60;99.90
8780;DHT22;62328;51.19929245;4.42130175;2023-04-15T09:40:13;15.60;99.90
8780;DHT22;62328;51.19929245;4.42130175;2023-04-15T09:42:57;16.10;99.90
8780;DHT22;62328;51.19929245;4.42130175;2023-04-15T09:45:25;15.70;99.90
8780;DHT22;62328;51.19929245;4.42130175;2023-04-15T09:47:52;15.80;99.90
8780;DHT22;62328;51.19929245;4.42130175;2023-04-15T09:50:28;15.80;99.90
8780;DHT22;62328;51.19929245;4.42130175;2023-04-15T09:52:55;15.80;99.90
8780;DHT22;62328;51.19929245;4.42130175;2023-04-15T09:55:24;15.80;99.90
8780;DHT22;62328;51.19929245;4.42130175;2023-04-15T09:57:51;15.90;99.90
8780;DHT22;62328;51.19929245;4.42130175;2023-04-15T10:00:19;16.00;99.90
8780;DHT22;62328;51.19929245;4.42130175;2023-04-15T10:02:46;16.00;99.90
8780;DHT22;62328;51.19929245;4.42130175;2023-04-15T10:05:14;16.10;99.90
8780;DHT22;62328;51.19929245;4.42130175;2023-04-15T10:07:42;16.20;99.90
8780;DHT22;62328;51.19929245;4.42130175;2023-04-15T10:10:10;16.30;99.90
8780;DHT22;62328;51.19929245;4.42130175;2023-04-15T10:12:40;16.30;99.90
8780;DHT22;62328;51.19929245;4.42130175;2023-04-15T10:15:13;16.40;99.90
8780;DHT22;62328;51.19929245;4.42130175;2023-04-15T10:17:43;16.60;99.90
8780;DHT22;62328;51.19929245;4.42130175;2023-04-15T10:20:10;17.40;99.90
8780;DHT22;62328;51.19929245;4.42130175;2023-04-15T10:22:39;19.00;99.90
8780;DHT22;62328;51.19929245;4.42130175;2023-04-15T10:25:08;21.00;99.90
8780;DHT22;62328;51.19929245;4.42130175;2023-04-15T10:27:36;21.90;99.90
8780;DHT22;62328;51.19929245;4.42130175;2023-04-15T10:30:06;21.60;99.90
8780;DHT22;62328;51.19929245;4.42130175;2023-04-15T10:32:33;20.80;99.90
8780;DHT22;62328;51.19929245;4.42130175;2023-04-15T10:35:02;20.10;99.90
8780;DHT22;62328;51.19929245;4.42130175;2023-04-15T10:37:35;19.80;99.90
8780;DHT22;62328;51.19929245;4.42130175;2023-04-15T10:40:23;19.90;99.90
8780;DHT22;62328;51.19929245;4.42130175;2023-04-15T10:42:50;19.80;99.90
8780;DHT22;62328;51.19929245;4.42130175;2023-04-15T10:45:18;19.60;99.90
8780;DHT22;62328;51.19929245;4.42130175;2023-04-15T10:47:45;19.10;99.90
8780;DHT22;62328;51.19929245;4.42130175;2023-04-15T10:50:13;18.70;99.90
8780;DHT22;62328;51.19929245;4.42130175;2023-04-15T10:52:40;18.40;99.90
8780;DHT22;62328;51.19929245;4.42130175;2023-04-15T10:55:13;18.20;99.90
8780;DHT22;62328;51.19929245;4.42130175;2023-04-15T10:57:41;18.10;99.90
8780;DHT22;62328;51.19929245;4.42130175;2023-04-15T11:00:13;18.00;99.90
8780;DHT22;62328;51.19929245;4.42130175;2023-04-15T11:02:42;17.90;99.90
8780;DHT22;62328;51.19929245;4.42130175;2023-04-15T11:05:09;18.10;99.90
8780;DHT22;62328;51.19929245;4.42130175;2023-04-15T11:07:40;18.70;99.90
8780;DHT22;62328;51.19929245;4.42130175;2023-04-15T11:13:21;19.60;99.90
8780;DHT22;62328;51.19929245;4.42130175;2023-04-15T11:15:50;19.50;99.90
8780;DHT22;62328;51.19929245;4.42130175;2023-04-15T11:18:18;20.10;99.90
8780;DHT22;62328;51.19929245;4.42130175;2023-04-15T11:20:47;20.40;99.90
8780;DHT22;62328;51.19929245;4.42130175;2023-04-15T11:23:17;19.90;99.90
8780;DHT22;62328;51.19929245;4.42130175;2023-04-15T11:25:44;19.50;99.90
8780;DHT22;62328;51.19929245;4.42130175;2023-04-15T11:28:12;19.10;99.90
8780;DHT22;62328;51.19929245;4.42130175;2023-04-15T11:30:39;18.70;99.90
8780;DHT22;62328;51.19929245;4.42130175;2023-04-15T11:33:08;18.50;99.90
8780;DHT22;62328;51.19929245;4.42130175;2023-04-15T11:35:36;18.50;99.90
8780;DHT22;62328;51.19929245;4.42130175;2023-04-15T11:38:08;18.20;99.90
8780;DHT22;62328;51.19929245;4.42130175;2023-04-15T11:40:37;18.10;99.90
8780;DHT22;62328;51.19929245;4.42130175;2023-04-15T11:43:05;18.10;99.90
8780;DHT22;62328;51.19929245;4.42130175;2023-04-15T11:45:33;17.90;99.90
8780;DHT22;62328;51.19929245;4.42130175;2023-04-15T11:48:14;18.00;99.90
8780;DHT22;62328;51.19929245;4.42130175;2023-04-15T11:50:41;18.00;99.90
8780;DHT22;62328;51.19929245;4.42130175;2023-04-15T11:53:09;18.10;99.90
8780;DHT22;62328;51.19929245;4.42130175;2023-04-15T11:55:45;17.90;99.90
8780;DHT22;62328;51.19929245;4.42130175;2023-04-15T11:58:14;18.00;99.90
8780;DHT22;62328;51.19929245;4.42130175;2023-04-15T12:00:45;18.00;99.90
8780;DHT22;62328;51.19929245;4.42130175;2023-04-15T12:03:16;18.00;99.90
8780;DHT22;62328;51.19929245;4.42130175;2023-04-15T12:06:05;18.00;99.90
8780;DHT22;62328;51.19929245;4.42130175;2023-04-15T12:08:52;18.10;99.90
8780;DHT22;62328;51.19929245;4.42130175;2023-04-15T12:11:27;18.10;99.90
8780;DHT22;62328;51.19929245;4.42130175;2023-04-15T12:13:56;18.10;99.90
8780;DHT22;62328;51.19929245;4.42130175;2023-04-15T12:16:23;18.50;99.90
8780;DHT22;62328;51.19929245;4.42130175;2023-04-15T12:18:51;18.20;99.90
8780;DHT22;62328;51.19929245;4.42130175;2023-04-15T12:21:21;18.30;99.90
8780;DHT22;62328;51.19929245;4.42130175;2023-04-15T12:23:48;18.20;99.90
8780;DHT22;62328;51.19929245;4.42130175;2023-04-15T12:26:16;18.20;99.90
8780;DHT22;62328;51.19929245;4.42130175;2023-04-15T12:28:44;18.20;99.90
8780;DHT22;62328;51.19929245;4.42130175;2023-04-15T12:31:13;18.20;99.90
8780;DHT22;62328;51.19929245;4.42130175;2023-04-15T12:33:40;18.20;99.90
8780;DHT22;62328;51.19929245;4.42130175;2023-04-15T12:36:07;18.10;99.90
8780;DHT22;62328;51.19929245;4.42130175;2023-04-15T12:38:34;17.80;99.90
8780;DHT22;62328;51.19929245;4.42130175;2023-04-15T12:41:01;18.10;99.90
8780;DHT22;62328;51.19929245;4.42130175;2023-04-15T12:43:27;18.10;99.90
8780;DHT22;62328;51.19929245;4.42130175;2023-04-15T12:45:55;18.20;99.90
8780;DHT22;62328;51.19929245;4.42130175;2023-04-15T12:48:22;18.20;99.90
8780;DHT22;62328;51.19929245;4.42130175;2023-04-15T12:50:49;18.20;99.90
8780;DHT22;62328;51.19929245;4.42130175;2023-04-15T12:53:17;18.30;99.90
8780;DHT22;62328;51.19929245;4.42130175;2023-04-15T12:55:43;18.20;99.90
8780;DHT22;62328;51.19929245;4.42130175;2023-04-15T12:58:10;18.30;99.90
8780;DHT22;62328;51.19929245;4.42130175;2023-04-15T13:00:37;18.30;99.90
8780;DHT22;62328;51.19929245;4.42130175;2023-04-15T13:03:06;18.30;99.90
8780;DHT22;62328;51.19929245;4.42130175;2023-04-15T13:05:32;18.40;99.90
8780;DHT22;62328;51.19929245;4.42130175;2023-04-15T13:08:01;18.50;99.90
8780;DHT22;62328;51.19929245;4.42130175;2023-04-15T13:10:28;18.60;99.90
8780;DHT22;62328;51.19929245;4.42130175;2023-04-15T13:12:56;18.50;99.90
8780;DHT22;62328;51.19929245;4.42130175;2023-04-15T13:15:29;18.60;99.90
8780;DHT22;62328;51.19929245;4.42130175;2023-04-15T13:17:56;18.60;99.90
8780;DHT22;62328;51.19929245;4.42130175;2023-04-15T13:20:24;18.80;99.90
8780;DHT22;62328;51.19929245;4.42130175;2023-04-15T13:22:51;19.10;99.90
8780;DHT22;62328;51.19929245;4.42130175;2023-04-15T13:25:18;18.90;99.90
8780;DHT22;62328;51.19929245;4.42130175;2023-04-15T13:27:45;19.00;99.90
8780;DHT22;62328;51.19929245;4.42130175;2023-04-15T13:30:12;19.10;99.90
8780;DHT22;62328;51.19929245;4.42130175;2023-04-15T13:32:39;19.20;99.90
8780;DHT22;62328;51.19929245;4.42130175;2023-04-15T13:35:07;19.30;99.90
8780;DHT22;62328;51.19929245;4.42130175;2023-04-15T13:37:35;19.50;99.90
8780;DHT22;62328;51.19929245;4.42130175;2023-04-15T13:40:02;19.60;99.90
8780;DHT22;62328;51.19929245;4.42130175;2023-04-15T13:42:31;19.70;99.90